Time;durP1;ratioP1;P1;durP2;ratioP2;P2;SDS_P1;SDS_P2;PMS_P1;PMS_P2;Temp;Humidity;BMP_temperature;BMP_pressure;BME280_temperature;BME280_humidity;BME280_pressure;Samples;Min_cycle;Max_cycle;Signal;HPM_P1;HPM_P2
2022/04/28 00:00:13;;;;;;;19.17;7.25;;;6.40;99.90;;;;;;5050865;28;20438;-51
2022/04/28 00:02:39;;;;;;;16.33;6.78;;;6.40;99.90;;;;;;5052476;28;20052;-51
2022/04/28 00:05:05;;;;;;;14.07;6.57;;;6.30;99.90;;;;;;5049338;28;20438;-51
2022/04/28 00:07:32;;;;;;;12.63;6.68;;;6.20;99.90;;;;;;5051808;28;20127;-48
2022/04/28 00:09:58;;;;;;;15.60;6.40;;;6.10;99.90;;;;;;5051781;28;20560;-48
2022/04/28 00:12:23;;;;;;;16.50;6.90;;;6.00;99.90;;;;;;5050615;28;20082;-47
2022/04/28 00:14:49;;;;;;;23.83;7.25;;;6.00;99.90;;;;;;5052385;28;20064;-50
2022/04/28 00:17:14;;;;;;;12.68;6.00;;;6.00;99.90;;;;;;5050561;28;20126;-48
2022/04/28 00:19:40;;;;;;;14.85;6.63;;;5.90;99.90;;;;;;5048541;28;20087;-48
2022/04/28 00:22:05;;;;;;;14.07;7.10;;;5.90;99.90;;;;;;5052315;28;20041;-48
2022/04/28 00:24:31;;;;;;;15.07;7.35;;;5.90;99.90;;;;;;5051991;28;20033;-48
2022/04/28 00:26:56;;;;;;;14.80;7.25;;;5.80;99.90;;;;;;5052023;28;20033;-47
2022/04/28 00:29:22;;;;;;;15.10;7.35;;;5.80;99.90;;;;;;5051252;28;20051;-48
2022/04/28 00:31:48;;;;;;;15.98;7.88;;;5.70;99.90;;;;;;5048759;28;20497;-47
2022/04/28 00:34:14;;;;;;;17.67;7.38;;;5.70;99.90;;;;;;5051059;28;20045;-50
2022/04/28 00:36:39;;;;;;;15.65;7.38;;;5.70;99.90;;;;;;5050724;28;20411;-48
2022/04/28 00:39:05;;;;;;;17.23;7.38;;;5.70;99.90;;;;;;5051217;28;20041;-48
2022/04/28 00:41:30;;;;;;;17.67;7.40;;;5.70;99.90;;;;;;5051896;28;20033;-48
2022/04/28 00:43:56;;;;;;;13.52;6.97;;;5.70;99.90;;;;;;5050072;28;20091;-48
2022/04/28 00:46:22;;;;;;;14.40;7.25;;;5.70;99.90;;;;;;5051352;28;20037;-49
2022/04/28 00:51:34;;;;;;;15.32;7.00;;;5.60;99.90;;;;;;5044738;28;20137;-48
2022/04/28 00:54:01;;;;;;;13.98;6.43;;;5.50;99.90;;;;;;5050770;28;20055;-48
2022/04/28 00:56:27;;;;;;;15.82;6.53;;;5.50;99.90;;;;;;5051510;28;20037;-47
2022/04/28 00:58:55;;;;;;;17.25;6.65;;;5.40;99.90;;;;;;5047343;28;20044;-48
2022/04/28 01:01:20;;;;;;;14.20;7.20;;;5.30;99.90;;;;;;5063650;28;20044;-48
2022/04/28 01:03:46;;;;;;;14.25;6.82;;;5.20;99.90;;;;;;5053608;28;20091;-47
2022/04/28 01:06:13;;;;;;;12.55;6.30;;;5.20;99.90;;;;;;5049943;28;20465;-47
2022/04/28 01:08:39;;;;;;;19.42;7.78;;;5.10;99.90;;;;;;5049929;28;20037;-47
2022/04/28 01:11:05;;;;;;;16.48;7.32;;;5.10;99.90;;;;;;5049771;28;20045;-47
2022/04/28 01:13:31;;;;;;;21.17;7.38;;;5.10;99.90;;;;;;5048557;28;20040;-47
2022/04/28 01:15:57;;;;;;;16.90;7.18;;;5.00;99.90;;;;;;5046251;28;20490;-47
2022/04/28 01:18:22;;;;;;;16.13;7.70;;;4.90;99.90;;;;;;5050456;28;20062;-49
2022/04/28 01:20:48;;;;;;;13.75;6.63;;;4.90;99.90;;;;;;5045994;28;20037;-48
2022/04/28 01:23:13;;;;;;;21.85;7.55;;;4.90;99.90;;;;;;5048642;28;20174;-46
2022/04/28 01:25:39;;;;;;;14.65;7.00;;;4.90;99.90;;;;;;5051131;28;20514;-47
2022/04/28 01:28:05;;;;;;;19.67;8.05;;;4.80;99.90;;;;;;5048967;28;20056;-48
2022/04/28 01:30:30;;;;;;;20.48;7.45;;;4.80;99.90;;;;;;5048603;28;20033;-47
2022/04/28 01:32:58;;;;;;;16.55;7.32;;;4.80;99.90;;;;;;5050810;28;20037;-46
2022/04/28 01:35:24;;;;;;;16.17;7.85;;;4.70;99.90;;;;;;5050881;28;20090;-47
2022/04/28 01:37:52;;;;;;;16.42;7.35;;;4.70;99.90;;;;;;5050079;28;20072;-50
2022/04/28 01:40:18;;;;;;;13.52;6.53;;;4.60;99.90;;;;;;5047577;28;20033;-48
2022/04/28 01:42:50;;;;;;;14.23;6.70;;;4.50;99.90;;;;;;5050976;28;20102;-48
2022/04/28 01:45:16;;;;;;;;;;;4.40;99.90;;;;;;5050372;28;20037;-48
2022/04/28 01:47:42;;;;;;;15.15;7.15;;;4.30;99.90;;;;;;5053748;28;19927;-48
2022/04/28 01:50:10;;;;;;;16.90;7.90;;;4.30;99.90;;;;;;5048528;28;20214;-47
2022/04/28 01:55:23;;;;;;;16.48;7.40;;;4.30;99.90;;;;;;5054268;28;20564;-48
2022/04/28 01:57:49;;;;;;;13.57;6.75;;;4.30;99.90;;;;;;5054482;28;20053;-46
2022/04/28 02:00:15;;;;;;;19.42;6.72;;;4.20;99.90;;;;;;5052630;28;20111;-47
2022/04/28 02:02:43;;;;;;;16.60;7.93;;;4.10;99.90;;;;;;5052261;28;20052;-46
2022/04/28 02:05:09;;;;;;;16.15;7.00;;;4.10;99.90;;;;;;5049360;28;20131;-48
2022/04/28 02:07:35;;;;;;;16.30;6.72;;;4.10;99.90;;;;;;5053489;28;20116;-47
2022/04/28 02:10:03;;;;;;;14.50;7.10;;;4.00;99.90;;;;;;5054568;28;20398;-48
2022/04/28 02:12:28;;;;;;;14.57;7.50;;;3.90;99.90;;;;;;5054435;28;20040;-47
2022/04/28 02:14:54;;;;;;;17.50;8.07;;;3.90;99.90;;;;;;5052857;28;20415;-47
2022/04/28 02:17:33;;;;;;;18.85;8.07;;;3.90;99.90;;;;;;5054011;28;20090;-46
2022/04/28 02:20:06;;;;;;;19.10;7.95;;;4.00;99.90;;;;;;5051962;28;20490;-48
2022/04/28 02:22:32;;;;;;;18.10;8.43;;;3.90;99.90;;;;;;5054448;28;20037;-47
2022/04/28 02:24:58;;;;;;;11.27;6.60;;;3.90;99.90;;;;;;5054147;28;20037;-47
2022/04/28 02:27:24;;;;;;;18.83;8.38;;;4.00;99.90;;;;;;5052507;28;20039;-48
2022/04/28 02:29:51;;;;;;;18.55;8.65;;;3.90;99.90;;;;;;5053846;28;20544;-47
2022/04/28 02:32:16;;;;;;;19.17;9.48;;;3.90;99.90;;;;;;5035101;28;20038;-46
2022/04/28 02:34:42;;;;;;;13.73;7.70;;;4.00;99.90;;;;;;5053908;28;20406;-47
2022/04/28 02:37:07;;;;;;;16.13;7.88;;;3.90;99.90;;;;;;5053824;28;20037;-47
2022/04/28 02:39:33;;;;;;;12.10;7.10;;;3.90;99.90;;;;;;5053397;28;20486;-48
2022/04/28 02:41:58;;;;;;;14.35;6.78;;;3.80;99.90;;;;;;5049503;28;20519;-47
2022/04/28 02:44:24;;;;;;;15.30;7.13;;;3.70;99.90;;;;;;5049016;28;20094;-48
2022/04/28 02:46:50;;;;;;;21.52;9.40;;;3.80;99.90;;;;;;5069238;28;20125;-48
2022/04/28 02:49:16;;;;;;;18.05;8.60;;;3.80;99.90;;;;;;5053701;28;20483;-47
2022/04/28 02:51:42;;;;;;;22.05;8.65;;;3.90;99.90;;;;;;5053856;28;20041;-47
2022/04/28 02:54:08;;;;;;;21.38;8.77;;;4.00;99.90;;;;;;5053858;28;20322;-48
2022/04/28 02:56:34;;;;;;;22.30;8.57;;;4.10;99.90;;;;;;5050419;28;20025;-47
2022/04/28 02:59:00;;;;;;;17.58;8.38;;;4.30;99.90;;;;;;5052174;28;20029;-48
2022/04/28 03:01:26;;;;;;;16.55;8.32;;;4.40;99.90;;;;;;5053403;28;20076;-49
2022/04/28 03:03:52;;;;;;;21.92;7.63;;;4.50;99.90;;;;;;5053742;28;20179;-50
2022/04/28 03:11:49;;;;;;;16.05;7.28;;;4.60;99.90;;;;;;5047607;28;20060;-50
2022/04/28 03:14:15;;;;;;;18.85;8.25;;;4.60;99.90;;;;;;5052376;28;20041;-48
2022/04/28 03:16:41;;;;;;;18.40;8.02;;;4.70;99.90;;;;;;5052581;28;20491;-51
2022/04/28 03:19:07;;;;;;;14.95;8.02;;;4.70;99.90;;;;;;5053303;28;20064;-47
2022/04/28 03:21:33;;;;;;;14.98;7.65;;;4.70;99.90;;;;;;5053595;28;20041;-47
2022/04/28 03:23:58;;;;;;;14.05;7.45;;;4.80;99.90;;;;;;5051233;28;20400;-48
2022/04/28 03:26:24;;;;;;;14.02;7.18;;;4.90;99.90;;;;;;5050395;28;20037;-47
2022/04/28 03:28:50;;;;;;;12.95;7.88;;;5.00;99.90;;;;;;5051289;28;20029;-47
2022/04/28 03:31:15;;;;;;;13.93;7.82;;;5.00;99.90;;;;;;5052740;28;20565;-47
2022/04/28 03:33:41;;;;;;;13.77;7.25;;;5.00;99.90;;;;;;5052600;28;20124;-50
2022/04/28 03:36:50;;;;;;;16.58;7.90;;;5.00;99.90;;;;;;5053123;28;20120;-51
2022/04/28 03:38:53;;;;;;;16.25;7.97;;;4.90;99.90;;;;;;5050612;28;20046;-48
2022/04/28 03:41:19;;;;;;;13.73;7.18;;;4.90;99.90;;;;;;5052858;28;20124;-47
2022/04/28 03:43:47;;;;;;;18.08;7.60;;;4.90;99.90;;;;;;5053305;28;20121;-50
2022/04/28 03:46:15;;;;;;;14.45;7.70;;;4.80;99.90;;;;;;5077875;22;20026;-46
2022/04/28 03:48:41;;;;;;;14.02;7.30;;;4.80;99.90;;;;;;5047361;28;20094;-47
2022/04/28 03:51:06;;;;;;;12.60;7.22;;;4.80;99.90;;;;;;5049312;28;20037;-46
2022/04/28 03:53:32;;;;;;;18.08;7.88;;;4.80;99.90;;;;;;5045537;28;20037;-47
2022/04/28 03:55:58;;;;;;;14.48;7.10;;;4.80;99.90;;;;;;5035506;28;20040;-46
2022/04/28 03:58:25;;;;;;;18.52;7.80;;;4.90;99.90;;;;;;5032364;28;20042;-47
2022/04/28 04:00:51;;;;;;;18.55;7.57;;;5.00;99.90;;;;;;5032684;28;20103;-46
2022/04/28 04:03:19;;;;;;;16.30;7.25;;;5.00;99.90;;;;;;5032471;28;20376;-46
2022/04/28 04:05:45;;;;;;;19.08;7.82;;;5.10;99.90;;;;;;5032677;28;20095;-47
2022/04/28 04:08:10;;;;;;;18.95;8.07;;;5.20;99.90;;;;;;5029119;28;20033;-47
2022/04/28 04:10:36;;;;;;;14.25;7.53;;;5.30;99.90;;;;;;5025475;28;20034;-49
2022/04/28 04:13:01;;;;;;;14.98;8.18;;;5.30;99.90;;;;;;5012633;28;20042;-46
2022/04/28 04:15:27;;;;;;;13.18;7.57;;;5.30;99.90;;;;;;5021465;28;20091;-47
2022/04/28 04:17:53;;;;;;;16.75;7.57;;;5.40;99.90;;;;;;5023817;28;20049;-46
2022/04/28 04:20:18;;;;;;;18.35;8.13;;;5.30;99.90;;;;;;5015893;28;20120;-49
2022/04/28 04:22:44;;;;;;;15.68;6.82;;;5.30;99.90;;;;;;5026453;28;20049;-47
2022/04/28 04:25:10;;;;;;;13.35;7.43;;;5.30;99.90;;;;;;5006632;28;20038;-46
2022/04/28 04:27:36;;;;;;;11.68;7.50;;;5.30;99.90;;;;;;5031797;28;20034;-46
2022/04/28 04:32:17;;;;;;;15.68;8.10;;;6.00;99.90;;;;;;5033386;28;20112;-46
2022/04/28 04:32:48;;;;;;;15.15;7.18;;;5.40;99.90;;;;;;5035001;28;20133;-46
2022/04/28 04:35:14;;;;;;;11.40;7.20;;;5.40;99.90;;;;;;5024064;28;20037;-46
2022/04/28 04:37:40;;;;;;;11.40;6.95;;;5.30;99.90;;;;;;5023881;28;20629;-47
2022/04/28 04:40:06;;;;;;;18.45;7.40;;;5.30;99.90;;;;;;5012144;28;20045;-46
2022/04/28 04:42:32;;;;;;;15.30;7.80;;;5.30;99.90;;;;;;5031997;28;20061;-46
2022/04/28 04:44:58;;;;;;;16.10;8.13;;;5.40;99.90;;;;;;5014014;28;20069;-48
2022/04/28 04:47:23;;;;;;;17.48;6.95;;;5.40;99.90;;;;;;5018908;28;20034;-47
2022/04/28 04:49:49;;;;;;;18.98;7.10;;;5.50;99.90;;;;;;4994830;28;20534;-47
2022/04/28 04:52:14;;;;;;;14.77;6.78;;;5.60;99.90;;;;;;5029915;28;20044;-46
2022/04/28 04:54:40;;;;;;;13.55;7.28;;;5.70;99.90;;;;;;5023530;28;20105;-47
2022/04/28 04:57:05;;;;;;;14.45;7.10;;;5.80;99.90;;;;;;5031798;28;20059;-47
2022/04/28 04:59:31;;;;;;;15.85;6.90;;;5.90;99.90;;;;;;5037640;28;20029;-47
2022/04/28 05:01:56;;;;;;;15.38;6.90;;;6.00;99.90;;;;;;5023555;28;20034;-47
2022/04/28 05:04:22;;;;;;;17.60;7.50;;;6.10;99.90;;;;;;4996800;28;20116;-47
2022/04/28 05:06:48;;;;;;;13.10;7.22;;;6.20;99.90;;;;;;5030916;28;20376;-48
2022/04/28 05:09:13;;;;;;;13.98;7.00;;;6.20;99.90;;;;;;5005044;28;20033;-47
2022/04/28 05:11:39;;;;;;;14.85;6.93;;;6.30;99.90;;;;;;5005695;28;20091;-46
2022/04/28 05:14:05;;;;;;;14.82;6.82;;;6.30;99.90;;;;;;5031642;28;20041;-47
2022/04/28 05:16:30;;;;;;;14.70;6.78;;;6.30;99.90;;;;;;5031126;28;20403;-47
2022/04/28 05:18:56;;;;;;;13.40;6.40;;;6.40;99.90;;;;;;5029757;28;20049;-49
2022/04/28 05:21:21;;;;;;;12.73;6.68;;;6.40;99.90;;;;;;5026878;28;20199;-46
2022/04/28 05:23:47;;;;;;;10.93;6.85;;;6.50;99.90;;;;;;5029652;28;20451;-46
2022/04/28 05:26:12;;;;;;;11.77;6.68;;;6.50;99.90;;;;;;5023645;28;20091;-47
2022/04/28 05:28:38;;;;;;;13.10;7.50;;;6.50;99.90;;;;;;4996625;28;20037;-48
2022/04/28 05:31:04;;;;;;;19.42;7.97;;;6.50;99.90;;;;;;5023103;28;20128;-47
2022/04/28 05:33:29;;;;;;;14.75;7.38;;;6.50;99.90;;;;;;5011155;28;20049;-48
2022/04/28 05:35:55;;;;;;;12.77;7.80;;;6.50;99.90;;;;;;5027873;28;20458;-47
2022/04/28 05:38:21;;;;;;;16.27;7.75;;;6.60;99.90;;;;;;5012843;28;20045;-47
2022/04/28 05:40:46;;;;;;;17.15;7.55;;;6.60;99.90;;;;;;5020046;28;20383;-49
2022/04/28 05:45:57;;;;;;;20.75;7.40;;;6.80;99.90;;;;;;5019224;28;20052;-49
2022/04/28 05:48:23;;;;;;;21.00;7.72;;;6.80;99.90;;;;;;5012218;28;20041;-46
2022/04/28 05:50:48;;;;;;;14.90;7.78;;;6.90;99.90;;;;;;5021851;28;20033;-47
2022/04/28 05:53:14;;;;;;;15.63;7.35;;;7.00;99.90;;;;;;5030748;28;20060;-47
2022/04/28 05:55:40;;;;;;;15.15;7.18;;;7.00;99.90;;;;;;5028119;28;20058;-46
2022/04/28 05:58:07;;;;;;;15.98;7.50;;;7.10;99.90;;;;;;5018985;28;20038;-46
2022/04/28 06:00:33;;;;;;;18.15;7.85;;;7.10;99.90;;;;;;5025432;28;20097;-47
2022/04/28 06:03:00;;;;;;;13.25;7.20;;;7.20;99.90;;;;;;5026775;28;20046;-47
2022/04/28 06:05:26;;;;;;;15.05;7.07;;;7.20;99.90;;;;;;5030227;28;20056;-48
2022/04/28 06:07:51;;;;;;;13.85;7.05;;;7.30;99.90;;;;;;5018518;28;20030;-51
2022/04/28 06:10:17;;;;;;;12.73;7.03;;;7.30;99.90;;;;;;5017616;28;20037;-46
2022/04/28 06:12:43;;;;;;;13.35;6.07;;;7.40;99.90;;;;;;5019466;28;20124;-46
2022/04/28 06:15:10;;;;;;;14.73;6.30;;;7.40;99.90;;;;;;5013120;28;20461;-47
2022/04/28 06:17:36;;;;;;;14.73;5.95;;;7.40;99.90;;;;;;5023977;28;20048;-48
2022/04/28 06:20:03;;;;;;;15.48;6.55;;;7.50;99.90;;;;;;5026269;28;20034;-47
2022/04/28 06:22:29;;;;;;;14.90;7.18;;;7.50;99.90;;;;;;5027438;28;20060;-48
2022/04/28 06:24:56;;;;;;;13.25;6.20;;;7.60;99.90;;;;;;5022229;28;20512;-47
2022/04/28 06:27:22;;;;;;;12.10;6.00;;;7.60;99.90;;;;;;5012498;28;20479;-47
2022/04/28 06:29:49;;;;;;;14.00;6.03;;;7.60;99.90;;;;;;5030937;28;20033;-48
2022/04/28 06:32:18;;;;;;;11.27;6.00;;;7.70;99.90;;;;;;5030420;28;20041;-48
2022/04/28 06:34:44;;;;;;;15.68;6.38;;;7.80;99.90;;;;;;5035267;28;20112;-50
2022/04/28 06:37:10;;;;;;;11.13;5.70;;;7.80;99.90;;;;;;5028003;28;20427;-48
2022/04/28 06:39:36;;;;;;;15.10;5.60;;;7.90;99.90;;;;;;5031847;28;20030;-48
2022/04/28 06:42:03;;;;;;;15.98;6.65;;;7.90;99.90;;;;;;5019940;28;20116;-47
2022/04/28 06:44:28;;;;;;;12.93;5.82;;;8.00;99.90;;;;;;5021378;28;20053;-49
2022/04/28 06:46:54;;;;;;;14.18;6.05;;;8.00;99.90;;;;;;5024569;28;20050;-47
2022/04/28 06:49:19;;;;;;;11.13;5.45;;;8.20;99.90;;;;;;5020779;28;20072;-47
2022/04/28 06:51:45;;;;;;;13.77;6.55;;;8.10;99.90;;;;;;5022009;28;20108;-51
2022/04/28 06:54:10;;;;;;;12.80;5.85;;;8.20;99.90;;;;;;5025147;28;20046;-50
2022/04/28 06:56:36;;;;;;;10.05;5.30;;;8.20;99.90;;;;;;5022168;28;20037;-47
2022/04/28 06:59:02;;;;;;;12.10;5.70;;;8.30;99.90;;;;;;5023983;28;20053;-49
2022/04/28 07:01:27;;;;;;;16.48;5.38;;;8.40;99.90;;;;;;5025045;28;20120;-52
2022/04/28 07:03:53;;;;;;;15.75;5.32;;;8.40;99.90;;;;;;5023509;28;20061;-51
2022/04/28 07:06:18;;;;;;;13.43;5.40;;;8.40;99.90;;;;;;5019157;28;20164;-49
2022/04/28 07:08:44;;;;;;;12.68;5.20;;;8.50;99.90;;;;;;5021616;28;20479;-48
2022/04/28 07:11:11;;;;;;;14.27;5.20;;;8.50;99.90;;;;;;5020357;28;20049;-48
2022/04/28 07:13:37;;;;;;;13.43;4.82;;;8.60;99.90;;;;;;5026978;28;20056;-48
2022/04/28 07:16:03;;;;;;;12.10;4.47;;;8.60;99.90;;;;;;5036593;28;20438;-47
2022/04/28 07:18:29;;;;;;;10.45;4.65;;;8.60;99.90;;;;;;5020263;28;20104;-50
2022/04/28 07:20:55;;;;;;;14.25;5.25;;;8.70;99.90;;;;;;5020496;28;20033;-47
2022/04/28 07:23:20;;;;;;;14.60;5.25;;;8.60;99.90;;;;;;5019501;28;20041;-49
2022/04/28 07:25:46;;;;;;;11.57;5.05;;;8.70;99.90;;;;;;5021643;28;20037;-48
2022/04/28 07:28:11;;;;;;;28.25;9.45;;;8.70;99.90;;;;;;5026533;28;20041;-49
2022/04/28 07:30:37;;;;;;;13.75;4.80;;;8.70;99.90;;;;;;5023072;28;20113;-47
2022/04/28 07:33:03;;;;;;;13.38;4.95;;;8.70;99.90;;;;;;5024989;28;20645;-50
2022/04/28 07:35:29;;;;;;;12.00;4.45;;;8.80;99.90;;;;;;5011066;28;20449;-49
2022/04/28 07:37:55;;;;;;;11.25;5.05;;;8.80;99.90;;;;;;5033871;28;20045;-48
2022/04/28 07:40:20;;;;;;;12.55;5.10;;;8.90;99.90;;;;;;5011973;28;20040;-49
2022/04/28 07:42:46;;;;;;;11.93;5.53;;;8.90;99.90;;;;;;5028567;28;20048;-50
2022/04/28 07:45:12;;;;;;;9.68;5.40;;;8.90;99.90;;;;;;5031330;28;20496;-52
2022/04/28 07:47:37;;;;;;;14.32;5.20;;;9.00;99.90;;;;;;5025885;28;20026;-51
2022/04/28 07:50:04;;;;;;;13.35;5.13;;;9.00;99.90;;;;;;5021886;28;20510;-50
2022/04/28 07:52:29;;;;;;;13.80;5.35;;;9.10;99.90;;;;;;5020312;28;20034;-50
2022/04/28 07:54:55;;;;;;;21.55;5.90;;;9.10;99.90;;;;;;5030353;28;20051;-49
2022/04/28 07:57:22;;;;;;;14.80;6.13;;;9.10;99.90;;;;;;5022205;28;20139;-47
2022/04/28 07:59:49;;;;;;;15.90;5.70;;;9.20;99.90;;;;;;5021044;28;20096;-48
2022/04/28 08:02:15;;;;;;;15.10;5.82;;;9.20;99.90;;;;;;5025900;28;20402;-50
2022/04/28 08:04:41;;;;;;;18.45;6.20;;;9.30;99.90;;;;;;5026447;28;20404;-49
2022/04/28 08:07:06;;;;;;;14.43;5.30;;;9.30;99.90;;;;;;5029444;28;20041;-50
2022/04/28 08:09:32;;;;;;;17.52;5.68;;;9.40;99.90;;;;;;5021402;28;20041;-48
2022/04/28 08:11:57;;;;;;;11.90;5.40;;;9.50;99.90;;;;;;4986385;28;20068;-49
2022/04/28 08:14:24;;;;;;;12.60;5.47;;;9.50;99.90;;;;;;5023970;28;20092;-47
2022/04/28 08:16:51;;;;;;;11.38;5.82;;;9.60;99.90;;;;;;5010760;28;20041;-47
2022/04/28 08:19:16;;;;;;;17.50;5.15;;;9.70;99.90;;;;;;5034763;28;20033;-48
2022/04/28 08:21:42;;;;;;;15.07;5.88;;;10.00;99.90;;;;;;5028296;28;20037;-48
2022/04/28 08:24:07;;;;;;;11.70;6.10;;;10.00;99.90;;;;;;5035222;28;20041;-51
2022/04/28 08:26:33;;;;;;;14.27;6.15;;;10.10;99.90;;;;;;5026339;28;20045;-47
2022/04/28 08:28:58;;;;;;;12.73;6.30;;;10.10;99.90;;;;;;5032093;28;20033;-51
2022/04/28 08:31:24;;;;;;;23.33;7.00;;;10.20;99.90;;;;;;5038604;28;20034;-47
2022/04/28 08:33:49;;;;;;;18.58;6.75;;;10.10;99.90;;;;;;5029041;28;20057;-51
2022/04/28 08:36:15;;;;;;;15.77;6.35;;;10.00;99.90;;;;;;5022862;28;20084;-49
2022/04/28 08:38:42;;;;;;;12.20;5.93;;;9.90;99.90;;;;;;5005962;28;20037;-51
2022/04/28 08:41:09;;;;;;;15.90;6.57;;;9.90;99.90;;;;;;5023336;28;20049;-50
2022/04/28 08:43:37;;;;;;;14.32;5.97;;;9.90;99.90;;;;;;5024419;28;20069;-50
2022/04/28 08:48:54;;;;;;;16.35;6.20;;;9.80;99.90;;;;;;5025245;28;20581;-50
2022/04/28 08:51:21;;;;;;;13.90;6.90;;;9.80;99.90;;;;;;5015388;28;20088;-47
2022/04/28 08:53:48;;;;;;;13.40;6.03;;;9.90;99.90;;;;;;5013596;28;20116;-49
2022/04/28 08:56:15;;;;;;;18.73;6.80;;;9.90;99.90;;;;;;5013793;28;20072;-53
2022/04/28 08:58:41;;;;;;;13.65;6.18;;;10.00;99.90;;;;;;5024893;28;20038;-49
2022/04/28 09:01:06;;;;;;;14.27;5.70;;;10.00;99.90;;;;;;5012138;28;20049;-50
2022/04/28 09:03:32;;;;;;;16.27;5.55;;;10.00;99.90;;;;;;5013476;28;20041;-50
2022/04/28 09:06:18;;;;;;;13.32;5.10;;;10.00;99.90;;;;;;5017868;28;20499;-47
2022/04/28 09:08:44;;;;;;;11.15;5.65;;;10.20;99.90;;;;;;5014179;28;20117;-48
2022/04/28 09:11:20;;;;;;;14.38;5.18;;;10.20;99.90;;;;;;5015378;28;20029;-49
2022/04/28 09:14:09;;;;;;;11.80;5.03;;;10.20;99.90;;;;;;5021284;28;20029;-48
2022/04/28 09:16:56;;;;;;;13.20;4.80;;;10.30;99.90;;;;;;5019216;28;20569;-52
2022/04/28 09:19:23;;;;;;;12.25;4.68;;;10.30;99.90;;;;;;5003755;28;20095;-51
2022/04/28 09:21:50;;;;;;;12.32;4.82;;;10.40;99.90;;;;;;5012921;28;20067;-50
2022/04/28 09:24:16;;;;;;;12.63;4.60;;;10.40;99.90;;;;;;4986096;28;20092;-51
2022/04/28 09:26:42;;;;;;;12.85;4.25;;;10.40;99.90;;;;;;5021987;28;20042;-49
2022/04/28 09:29:13;;;;;;;11.77;4.18;;;10.50;99.90;;;;;;5027243;28;20088;-48
2022/04/28 09:31:41;;;;;;;12.75;4.20;;;10.60;99.90;;;;;;5011468;28;20033;-47
2022/04/28 09:34:09;;;;;;;11.77;4.07;;;10.60;99.90;;;;;;5029356;28;20041;-47
2022/04/28 09:36:35;;;;;;;13.68;4.25;;;10.70;99.90;;;;;;5027461;28;20037;-49
2022/04/28 09:39:01;;;;;;;12.18;3.85;;;10.90;99.90;;;;;;5014976;28;20056;-52
2022/04/28 09:44:12;;;;;;;12.52;4.13;;;11.20;99.90;;;;;;4992594;28;20541;-52
2022/04/28 09:46:43;;;;;;;10.40;4.43;;;11.20;99.90;;;;;;5032174;22;20009;-48
2022/04/28 09:49:13;;;;;;;11.00;3.97;;;11.30;99.90;;;;;;5031346;28;20033;-49
2022/04/28 09:51:39;;;;;;;11.85;3.80;;;11.30;99.90;;;;;;5038943;28;20063;-49
2022/04/28 09:54:10;;;;;;;13.13;4.28;;;11.40;99.90;;;;;;5043045;28;20037;-48
2022/04/28 09:56:38;;;;;;;11.52;4.00;;;11.40;99.90;;;;;;5044609;28;20068;-47
2022/04/28 09:59:05;;;;;;;11.32;3.53;;;11.40;99.90;;;;;;5022166;28;20045;-47
2022/04/28 10:01:34;;;;;;;10.85;3.80;;;11.40;99.90;;;;;;5038450;28;20166;-46
2022/04/28 10:04:00;;;;;;;10.07;4.07;;;11.50;99.90;;;;;;5025044;28;20422;-48
2022/04/28 10:06:26;;;;;;;8.75;3.25;;;11.60;99.90;;;;;;5042623;28;20033;-49
2022/04/28 10:08:53;;;;;;;11.93;3.75;;;11.70;99.10;;;;;;5044776;28;20498;-47
2022/04/28 10:11:22;;;;;;;11.43;3.60;;;11.80;98.90;;;;;;5036437;28;20041;-47
2022/04/28 10:13:50;;;;;;;11.30;3.40;;;11.80;97.50;;;;;;5041809;28;20041;-51
2022/04/28 10:16:19;;;;;;;9.13;3.28;;;11.80;97.00;;;;;;5049715;28;20145;-51
2022/04/28 10:19:17;;;;;;;11.55;3.80;;;11.80;96.90;;;;;;5034068;28;20434;-53
2022/04/28 10:21:58;;;;;;;9.40;3.17;;;11.90;97.50;;;;;;5037521;28;20033;-53
2022/04/28 10:32:59;;;;;;;13.50;3.60;;;11.90;96.60;;;;;;5055580;28;20099;-51
2022/04/28 10:35:51;;;;;;;7.28;3.10;;;12.00;96.70;;;;;;5054828;28;20103;-50
2022/04/28 10:38:26;;;;;;;13.10;3.80;;;12.10;96.50;;;;;;5045075;28;20045;-53
2022/04/28 10:40:56;;;;;;;8.30;3.50;;;12.20;96.40;;;;;;5050739;28;20048;-52
2022/04/28 10:43:24;;;;;;;12.18;3.60;;;12.40;96.50;;;;;;5054333;28;20513;-53
2022/04/28 10:45:51;;;;;;;10.48;3.28;;;12.60;95.60;;;;;;5052912;28;20088;-53
2022/04/28 10:48:27;;;;;;;11.80;3.47;;;12.70;94.20;;;;;;5036075;28;20037;-52
2022/04/28 10:51:15;;;;;;;10.45;3.10;;;12.80;93.90;;;;;;5054070;28;20509;-52
2022/04/28 10:54:00;;;;;;;10.20;3.38;;;13.00;93.10;;;;;;5046639;28;20144;-53
2022/04/28 10:56:28;;;;;;;10.82;3.30;;;13.10;93.20;;;;;;5041074;28;20411;-53
2022/04/28 10:58:59;;;;;;;10.32;2.90;;;13.30;92.90;;;;;;5034096;28;20377;-53
2022/04/28 11:01:31;;;;;;;10.57;3.45;;;13.50;91.30;;;;;;5033978;28;20041;-53
2022/04/28 11:04:02;;;;;;;6.80;3.28;;;13.60;90.60;;;;;;5034154;28;20300;-54
2022/04/28 11:06:38;;;;;;;10.05;3.40;;;13.60;90.90;;;;;;5035084;28;20445;-51
2022/04/28 11:09:06;;;;;;;8.00;3.17;;;13.70;90.80;;;;;;5041463;28;20045;-50
2022/04/28 11:11:45;;;;;;;6.40;3.42;;;13.80;90.00;;;;;;5053803;28;20037;-52
2022/04/28 11:14:12;;;;;;;8.80;3.30;;;13.90;90.80;;;;;;5053918;28;20119;-54
2022/04/28 11:16:43;;;;;;;7.43;3.20;;;14.00;91.40;;;;;;5046929;28;20034;-50
2022/04/28 11:19:09;;;;;;;9.20;3.55;;;14.10;91.10;;;;;;5032941;28;20045;-50
2022/04/28 11:21:39;;;;;;;8.80;3.55;;;14.20;90.30;;;;;;5037933;28;20060;-53
2022/04/28 11:24:06;;;;;;;8.60;3.20;;;14.20;89.90;;;;;;5045164;28;20033;-53
2022/04/28 11:26:32;;;;;;;11.90;3.50;;;14.30;86.50;;;;;;5048514;28;20041;-50
2022/04/28 11:29:09;;;;;;;7.00;2.63;;;14.10;85.30;;;;;;5040273;28;20357;-54
2022/04/28 11:31:36;;;;;;;8.73;3.55;;;14.10;85.90;;;;;;5047677;28;20036;-51
2022/04/28 11:34:04;;;;;;;12.35;3.40;;;14.10;86.60;;;;;;5045158;28;20116;-53
2022/04/28 11:36:30;;;;;;;8.07;3.17;;;14.20;88.60;;;;;;5045394;28;20045;-51
2022/04/28 11:39:03;;;;;;;11.48;3.85;;;14.30;86.00;;;;;;5049129;28;20025;-53
2022/04/28 11:41:34;;;;;;;11.05;4.00;;;14.40;85.00;;;;;;5039590;28;20088;-50
2022/04/28 11:44:07;;;;;;;10.32;3.50;;;14.40;86.40;;;;;;5015461;28;20079;-53
2022/04/28 11:46:48;;;;;;;12.38;3.85;;;14.50;82.30;;;;;;5043805;28;20041;-51
2022/04/28 11:49:14;;;;;;;7.55;3.17;;;14.30;85.00;;;;;;5043875;28;20120;-53
2022/04/28 11:51:40;;;;;;;13.38;4.13;;;14.20;82.80;;;;;;5052463;28;20124;-53
2022/04/28 11:54:19;;;;;;;9.48;3.15;;;14.00;82.30;;;;;;5044628;28;20136;-52
2022/04/28 11:56:45;;;;;;;10.52;3.80;;;13.80;85.20;;;;;;5035062;28;20037;-50
2022/04/28 11:59:11;;;;;;;7.95;3.63;;;13.90;87.20;;;;;;5043941;28;20095;-49
2022/04/28 12:01:39;;;;;;;10.05;3.45;;;14.20;85.00;;;;;;5038314;28;20487;-53
2022/04/28 12:04:05;;;;;;;11.18;3.40;;;14.30;80.80;;;;;;5033241;28;20107;-50
2022/04/28 12:06:31;;;;;;;11.13;3.53;;;14.30;82.90;;;;;;5052759;28;20041;-50
2022/04/28 12:08:59;;;;;;;8.93;3.53;;;14.30;81.60;;;;;;5044046;28;20029;-51
2022/04/28 12:14:23;;;;;;;7.72;3.08;;;14.30;83.60;;;;;;5040944;28;20127;-50
2022/04/28 12:20:04;;;;;;;10.35;3.45;;;14.20;83.80;;;;;;5032471;28;20118;-53
2022/04/28 12:22:40;;;;;;;10.25;4.20;;;14.30;80.00;;;;;;5046106;28;20038;-48
2022/04/28 12:25:11;;;;;;;11.95;4.07;;;14.30;83.10;;;;;;5050284;28;20044;-50
2022/04/28 12:27:51;;;;;;;10.93;4.15;;;14.30;82.70;;;;;;5043701;28;20457;-50
2022/04/28 12:30:18;;;;;;;13.18;4.30;;;14.30;84.30;;;;;;5039684;28;20391;-52
2022/04/28 12:32:52;;;;;;;10.43;4.47;;;14.40;84.70;;;;;;5032200;28;20052;-50
2022/04/28 12:35:36;;;;;;;11.07;4.30;;;14.50;83.80;;;;;;5032125;28;20507;-53
2022/04/28 12:38:06;;;;;;;9.82;5.35;;;14.50;82.20;;;;;;5041114;28;20071;-50
2022/04/28 12:40:37;;;;;;;11.68;4.60;;;14.50;81.90;;;;;;5050315;28;20041;-53
2022/04/28 12:43:03;;;;;;;9.35;4.28;;;14.40;80.90;;;;;;5051908;28;20072;-53
2022/04/28 12:45:47;;;;;;;10.20;4.55;;;14.30;83.60;;;;;;5049125;28;20059;-51
2022/04/28 12:48:42;;;;;;;11.50;4.93;;;14.40;83.00;;;;;;5013808;28;20045;-53
2022/04/28 12:51:14;;;;;;;12.73;4.53;;;14.40;82.60;;;;;;5014536;28;20049;-54
2022/04/28 12:53:41;;;;;;;;;;;14.50;81.80;;;;;;5043509;28;20129;-54
2022/04/28 12:56:13;;;;;;;8.55;4.55;;;14.50;81.40;;;;;;5051961;28;20456;-53
2022/04/28 12:58:44;;;;;;;16.27;5.20;;;14.50;81.10;;;;;;5051586;28;20041;-50
2022/04/28 13:01:12;;;;;;;13.50;4.72;;;14.60;81.00;;;;;;5051908;28;20113;-51
2022/04/28 13:03:40;;;;;;;12.05;4.93;;;14.70;80.40;;;;;;5051562;28;20044;-53
2022/04/28 13:06:06;;;;;;;13.63;5.20;;;14.50;82.40;;;;;;5048423;28;20561;-52
2022/04/28 13:08:32;;;;;;;10.77;5.00;;;14.40;82.20;;;;;;5039197;28;20038;-53
2022/04/28 13:10:58;;;;;;;12.05;5.30;;;14.40;81.50;;;;;;5022934;28;20426;-53
2022/04/28 13:13:23;;;;;;;13.77;4.88;;;14.40;81.00;;;;;;5051183;28;20037;-50
2022/04/28 13:15:49;;;;;;;14.43;4.78;;;14.50;82.30;;;;;;5049721;28;20037;-50
2022/04/28 13:18:14;;;;;;;12.30;4.55;;;14.70;81.30;;;;;;5051206;28;20041;-53
2022/04/28 13:20:40;;;;;;;11.85;4.60;;;14.70;80.20;;;;;;5050875;28;20079;-53